Nassau (NAS/MYNN)

Information

Location
Nassau, Bahamas
Local Time
21:47 / 9:47 pm
GMT Time
01:47 / 1:47 am
Gates
15
No FAA reported delays
METAR MYNN 270100Z 08008KT 9999 FEW012CB SCT018TCU BKN220 30/23 A3003 RMK CB/TCU SCT ALQDS
TAF MYNN 262200Z 2700/2800 12006KT 9999 VCSH FEW015CB SCT018 PROB30 TEMPO 2716/2721 9000 SHRA FEW012 SCT015CB BKN050